sensor_id;sensor_type;location;lat;lon;timestamp;pressure;altitude;pressure_sealevel;temperature;humidity
60817;BME280;51921;51.518;-3.188;2023-06-10T00:02:03;100945.77;;;11.62;100.00
60817;BME280;51921;51.518;-3.188;2023-06-10T00:04:28;100946.08;;;11.66;100.00
60817;BME280;51921;51.518;-3.188;2023-06-10T00:06:53;100946.85;;;11.33;100.00
60817;BME280;51921;51.518;-3.188;2023-06-10T00:09:18;100947.89;;;11.49;100.00
60817;BME280;51921;51.518;-3.188;2023-06-10T00:11:44;100950.92;;;11.32;100.00
60817;BME280;51921;51.518;-3.188;2023-06-10T00:14:09;100948.49;;;11.44;100.00
60817;BME280;51921;51.518;-3.188;2023-06-10T00:16:35;100945.50;;;11.44;100.00
60817;BME280;51921;51.518;-3.188;2023-06-10T00:19:00;100944.93;;;11.08;100.00
60817;BME280;51921;51.518;-3.188;2023-06-10T00:21:25;100945.62;;;11.39;100.00
60817;BME280;51921;51.518;-3.188;2023-06-10T00:23:50;100949.26;;;11.01;100.00
60817;BME280;51921;51.518;-3.188;2023-06-10T00:26:15;100948.82;;;11.13;100.00
60817;BME280;51921;51.518;-3.188;2023-06-10T00:28:41;100945.96;;;10.99;100.00
60817;BME280;51921;51.518;-3.188;2023-06-10T00:31:07;100939.19;;;11.45;100.00
60817;BME280;51921;51.518;-3.188;2023-06-10T00:33:32;100936.05;;;10.85;100.00
60817;BME280;51921;51.518;-3.188;2023-06-10T00:35:57;100942.60;;;11.01;100.00
60817;BME280;51921;51.518;-3.188;2023-06-10T00:38:23;100934.36;;;10.98;100.00
60817;BME280;51921;51.518;-3.188;2023-06-10T00:40:48;100935.92;;;10.91;100.00
60817;BME280;51921;51.518;-3.188;2023-06-10T00:43:14;100927.86;;;11.12;100.00
60817;BME280;51921;51.518;-3.188;2023-06-10T00:45:39;100926.59;;;10.89;100.00
60817;BME280;51921;51.518;-3.188;2023-06-10T00:48:04;100930.37;;;10.91;100.00
60817;BME280;51921;51.518;-3.188;2023-06-10T00:50:29;100924.10;;;10.98;100.00
60817;BME280;51921;51.518;-3.188;2023-06-10T00:52:55;100922.16;;;10.80;100.00
60817;BME280;51921;51.518;-3.188;2023-06-10T00:55:20;100930.09;;;10.84;100.00
60817;BME280;51921;51.518;-3.188;2023-06-10T00:57:46;100923.93;;;10.70;100.00
60817;BME280;51921;51.518;-3.188;2023-06-10T01:00:11;100918.86;;;10.60;100.00
60817;BME280;51921;51.518;-3.188;2023-06-10T01:02:36;100917.25;;;10.40;100.00
60817;BME280;51921;51.518;-3.188;2023-06-10T01:05:01;100923.85;;;10.78;100.00
60817;BME280;51921;51.518;-3.188;2023-06-10T01:07:33;100920.53;;;10.53;100.00
60817;BME280;51921;51.518;-3.188;2023-06-10T01:09:57;100917.82;;;10.73;100.00
60817;BME280;51921;51.518;-3.188;2023-06-10T01:12:21;100914.29;;;10.99;100.00
60817;BME280;51921;51.518;-3.188;2023-06-10T01:14:42;100915.10;;;10.98;100.00
60817;BME280;51921;51.518;-3.188;2023-06-10T01:17:07;100917.74;;;10.67;100.00
60817;BME280;51921;51.518;-3.188;2023-06-10T01:19:33;100924.21;;;10.47;100.00
60817;BME280;51921;51.518;-3.188;2023-06-10T01:21:58;100912.76;;;10.80;100.00
60817;BME280;51921;51.518;-3.188;2023-06-10T01:24:23;100920.42;;;10.64;100.00
60817;BME280;51921;51.518;-3.188;2023-06-10T01:26:50;100916.32;;;10.48;100.00
60817;BME280;51921;51.518;-3.188;2023-06-10T01:29:18;100914.79;;;10.15;100.00
60817;BME280;51921;51.518;-3.188;2023-06-10T01:31:42;100917.54;;;10.09;100.00
60817;BME280;51921;51.518;-3.188;2023-06-10T01:34:10;100916.13;;;10.88;100.00
60817;BME280;51921;51.518;-3.188;2023-06-10T01:36:32;100917.05;;;10.42;100.00
60817;BME280;51921;51.518;-3.188;2023-06-10T01:38:57;100911.46;;;11.11;100.00
60817;BME280;51921;51.518;-3.188;2023-06-10T01:41:22;100909.14;;;10.60;100.00
60817;BME280;51921;51.518;-3.188;2023-06-10T01:43:48;100911.68;;;10.34;100.00
60817;BME280;51921;51.518;-3.188;2023-06-10T01:46:14;100918.17;;;10.18;100.00
60817;BME280;51921;51.518;-3.188;2023-06-10T01:48:39;100916.64;;;10.39;100.00
60817;BME280;51921;51.518;-3.188;2023-06-10T01:51:05;100919.19;;;10.21;100.00
60817;BME280;51921;51.518;-3.188;2023-06-10T01:53:30;100920.77;;;10.14;100.00
60817;BME280;51921;51.518;-3.188;2023-06-10T01:55:55;100921.43;;;10.16;100.00
60817;BME280;51921;51.518;-3.188;2023-06-10T01:58:20;100917.67;;;9.98;100.00
60817;BME280;51921;51.518;-3.188;2023-06-10T02:00:46;100919.80;;;9.99;100.00
60817;BME280;51921;51.518;-3.188;2023-06-10T02:03:11;100912.30;;;10.32;100.00
60817;BME280;51921;51.518;-3.188;2023-06-10T02:05:36;100907.21;;;10.07;100.00
60817;BME280;51921;51.518;-3.188;2023-06-10T02:08:02;100907.55;;;9.92;100.00
60817;BME280;51921;51.518;-3.188;2023-06-10T02:10:28;100909.44;;;10.29;100.00
60817;BME280;51921;51.518;-3.188;2023-06-10T02:12:53;100906.97;;;11.40;100.00
60817;BME280;51921;51.518;-3.188;2023-06-10T02:15:19;100909.43;;;11.30;100.00
60817;BME280;51921;51.518;-3.188;2023-06-10T02:17:44;100906.05;;;11.33;100.00
60817;BME280;51921;51.518;-3.188;2023-06-10T02:20:09;100910.99;;;10.26;100.00
60817;BME280;51921;51.518;-3.188;2023-06-10T02:22:34;100912.33;;;10.29;100.00
60817;BME280;51921;51.518;-3.188;2023-06-10T02:25:00;100911.82;;;9.94;100.00
60817;BME280;51921;51.518;-3.188;2023-06-10T02:27:25;100912.88;;;9.67;100.00
60817;BME280;51921;51.518;-3.188;2023-06-10T02:29:51;100915.76;;;10.03;100.00
60817;BME280;51921;51.518;-3.188;2023-06-10T02:32:16;100914.61;;;9.84;100.00
60817;BME280;51921;51.518;-3.188;2023-06-10T02:34:42;100916.61;;;9.71;100.00
60817;BME280;51921;51.518;-3.188;2023-06-10T02:37:08;100917.11;;;9.55;100.00
60817;BME280;51921;51.518;-3.188;2023-06-10T02:39:33;100915.14;;;9.61;100.00
60817;BME280;51921;51.518;-3.188;2023-06-10T02:41:59;100910.42;;;9.31;100.00
60817;BME280;51921;51.518;-3.188;2023-06-10T02:44:24;100915.67;;;9.56;100.00
60817;BME280;51921;51.518;-3.188;2023-06-10T02:46:49;100916.47;;;9.64;100.00
60817;BME280;51921;51.518;-3.188;2023-06-10T02:49:15;100915.08;;;9.59;100.00
60817;BME280;51921;51.518;-3.188;2023-06-10T02:51:40;100901.43;;;9.70;100.00
60817;BME280;51921;51.518;-3.188;2023-06-10T02:54:05;100901.34;;;9.88;100.00
60817;BME280;51921;51.518;-3.188;2023-06-10T02:56:31;100904.22;;;9.45;100.00
60817;BME280;51921;51.518;-3.188;2023-06-10T02:58:57;100910.91;;;9.47;100.00
60817;BME280;51921;51.518;-3.188;2023-06-10T03:01:22;100897.65;;;9.23;100.00
60817;BME280;51921;51.518;-3.188;2023-06-10T03:03:48;100904.48;;;9.37;100.00
60817;BME280;51921;51.518;-3.188;2023-06-10T03:06:13;100898.70;;;9.32;100.00
60817;BME280;51921;51.518;-3.188;2023-06-10T03:08:39;100898.83;;;9.21;100.00
60817;BME280;51921;51.518;-3.188;2023-06-10T03:11:05;100899.20;;;9.43;100.00
60817;BME280;51921;51.518;-3.188;2023-06-10T03:13:30;100908.42;;;9.36;100.00
60817;BME280;51921;51.518;-3.188;2023-06-10T03:15:55;100903.00;;;9.29;100.00
60817;BME280;51921;51.518;-3.188;2023-06-10T03:18:21;100906.12;;;9.06;100.00
60817;BME280;51921;51.518;-3.188;2023-06-10T03:20:47;100901.28;;;9.12;100.00
60817;BME280;51921;51.518;-3.188;2023-06-10T03:23:13;100915.23;;;8.92;100.00
60817;BME280;51921;51.518;-3.188;2023-06-10T03:25:38;100915.76;;;8.96;100.00
60817;BME280;51921;51.518;-3.188;2023-06-10T03:28:04;100909.38;;;9.22;100.00
60817;BME280;51921;51.518;-3.188;2023-06-10T03:30:30;100913.70;;;9.03;100.00
60817;BME280;51921;51.518;-3.188;2023-06-10T03:32:56;100914.25;;;8.96;100.00
60817;BME280;51921;51.518;-3.188;2023-06-10T03:35:22;100911.82;;;8.90;100.00
60817;BME280;51921;51.518;-3.188;2023-06-10T03:37:47;100912.63;;;9.23;100.00
60817;BME280;51921;51.518;-3.188;2023-06-10T03:40:12;100910.16;;;8.89;100.00
60817;BME280;51921;51.518;-3.188;2023-06-10T03:42:38;100913.52;;;8.57;100.00
60817;BME280;51921;51.518;-3.188;2023-06-10T03:45:04;100912.65;;;9.18;100.00
60817;BME280;51921;51.518;-3.188;2023-06-10T03:47:33;100924.15;;;9.12;100.00
60817;BME280;51921;51.518;-3.188;2023-06-10T03:49:54;100927.23;;;9.29;100.00
60817;BME280;51921;51.518;-3.188;2023-06-10T03:52:20;100922.64;;;8.49;100.00
60817;BME280;51921;51.518;-3.188;2023-06-10T03:54:46;100916.38;;;8.66;100.00
60817;BME280;51921;51.518;-3.188;2023-06-10T03:57:12;100920.25;;;8.72;100.00
60817;BME280;51921;51.518;-3.188;2023-06-10T03:59:37;100929.14;;;8.60;100.00
60817;BME280;51921;51.518;-3.188;2023-06-10T04:02:03;100939.10;;;8.63;100.00
60817;BME280;51921;51.518;-3.188;2023-06-10T04:04:28;100935.96;;;8.92;100.00
60817;BME280;51921;51.518;-3.188;2023-06-10T04:06:53;100937.68;;;9.00;100.00
60817;BME280;51921;51.518;-3.188;2023-06-10T04:09:19;100937.97;;;9.28;100.00
60817;BME280;51921;51.518;-3.188;2023-06-10T04:11:44;100931.50;;;8.73;100.00
60817;BME280;51921;51.518;-3.188;2023-06-10T04:14:09;100937.85;;;8.55;100.00
60817;BME280;51921;51.518;-3.188;2023-06-10T04:16:34;100937.07;;;8.58;100.00
60817;BME280;51921;51.518;-3.188;2023-06-10T04:19:00;100931.71;;;8.22;100.00
60817;BME280;51921;51.518;-3.188;2023-06-10T04:21:26;100931.92;;;7.81;100.00
60817;BME280;51921;51.518;-3.188;2023-06-10T04:23:51;100947.92;;;8.39;100.00
60817;BME280;51921;51.518;-3.188;2023-06-10T04:26:17;100938.69;;;7.93;100.00
60817;BME280;51921;51.518;-3.188;2023-06-10T04:28:43;100938.66;;;8.13;100.00
60817;BME280;51921;51.518;-3.188;2023-06-10T04:31:08;100936.07;;;8.57;100.00
60817;BME280;51921;51.518;-3.188;2023-06-10T04:33:33;100940.30;;;8.49;100.00
60817;BME280;51921;51.518;-3.188;2023-06-10T04:36:00;100937.81;;;8.90;100.00
60817;BME280;51921;51.518;-3.188;2023-06-10T04:38:25;100932.39;;;9.34;100.00
60817;BME280;51921;51.518;-3.188;2023-06-10T04:40:51;100937.64;;;8.41;100.00
60817;BME280;51921;51.518;-3.188;2023-06-10T04:43:17;100934.36;;;8.57;100.00
60817;BME280;51921;51.518;-3.188;2023-06-10T04:45:42;100931.76;;;8.71;100.00
60817;BME280;51921;51.518;-3.188;2023-06-10T04:48:08;100935.26;;;8.89;100.00
60817;BME280;51921;51.518;-3.188;2023-06-10T04:50:33;100938.38;;;8.37;100.00
60817;BME280;51921;51.518;-3.188;2023-06-10T04:52:58;100937.71;;;8.21;100.00
60817;BME280;51921;51.518;-3.188;2023-06-10T04:55:24;100939.33;;;8.67;100.00
60817;BME280;51921;51.518;-3.188;2023-06-10T04:57:49;100937.75;;;9.40;100.00
60817;BME280;51921;51.518;-3.188;2023-06-10T05:00:15;100934.76;;;9.41;100.00
60817;BME280;51921;51.518;-3.188;2023-06-10T05:02:41;100946.15;;;8.89;100.00
60817;BME280;51921;51.518;-3.188;2023-06-10T05:05:07;100960.70;;;8.86;100.00
60817;BME280;51921;51.518;-3.188;2023-06-10T05:07:31;100960.84;;;8.83;100.00
60817;BME280;51921;51.518;-3.188;2023-06-10T05:09:56;100951.48;;;9.93;100.00
60817;BME280;51921;51.518;-3.188;2023-06-10T05:12:21;100955.87;;;8.77;100.00
60817;BME280;51921;51.518;-3.188;2023-06-10T05:14:46;100954.81;;;8.95;100.00
60817;BME280;51921;51.518;-3.188;2023-06-10T05:17:12;100962.37;;;8.68;100.00
60817;BME280;51921;51.518;-3.188;2023-06-10T05:19:37;100967.67;;;8.96;100.00
60817;BME280;51921;51.518;-3.188;2023-06-10T05:22:03;100960.50;;;8.85;100.00
60817;BME280;51921;51.518;-3.188;2023-06-10T05:24:29;100959.22;;;8.79;100.00
60817;BME280;51921;51.518;-3.188;2023-06-10T05:26:54;100964.50;;;8.59;100.00
60817;BME280;51921;51.518;-3.188;2023-06-10T05:29:19;100983.18;;;8.55;100.00
60817;BME280;51921;51.518;-3.188;2023-06-10T05:31:45;100972.62;;;8.08;100.00
60817;BME280;51921;51.518;-3.188;2023-06-10T05:34:10;100985.65;;;8.59;100.00
60817;BME280;51921;51.518;-3.188;2023-06-10T05:36:36;100992.92;;;8.81;100.00
60817;BME280;51921;51.518;-3.188;2023-06-10T05:39:01;100981.43;;;8.31;100.00
60817;BME280;51921;51.518;-3.188;2023-06-10T05:41:26;100978.97;;;8.37;100.00
60817;BME280;51921;51.518;-3.188;2023-06-10T05:43:52;100983.12;;;8.68;100.00
60817;BME280;51921;51.518;-3.188;2023-06-10T05:46:18;100982.22;;;8.28;100.00
60817;BME280;51921;51.518;-3.188;2023-06-10T05:48:43;100979.65;;;8.48;100.00
60817;BME280;51921;51.518;-3.188;2023-06-10T05:51:09;100970.88;;;8.29;100.00
60817;BME280;51921;51.518;-3.188;2023-06-10T05:53:34;100970.58;;;8.74;100.00
60817;BME280;51921;51.518;-3.188;2023-06-10T05:55:59;100969.74;;;8.50;100.00
60817;BME280;51921;51.518;-3.188;2023-06-10T05:58:25;100971.76;;;8.75;100.00
60817;BME280;51921;51.518;-3.188;2023-06-10T06:00:50;100967.25;;;8.06;100.00
60817;BME280;51921;51.518;-3.188;2023-06-10T06:03:17;100962.69;;;8.73;100.00
60817;BME280;51921;51.518;-3.188;2023-06-10T06:05:41;100964.00;;;8.52;100.00
60817;BME280;51921;51.518;-3.188;2023-06-10T06:08:07;100968.26;;;8.28;100.00
60817;BME280;51921;51.518;-3.188;2023-06-10T06:10:32;100968.77;;;8.44;100.00
60817;BME280;51921;51.518;-3.188;2023-06-10T06:12:58;100968.94;;;8.37;100.00
60817;BME280;51921;51.518;-3.188;2023-06-10T06:15:23;100961.95;;;8.31;100.00
60817;BME280;51921;51.518;-3.188;2023-06-10T06:17:49;100967.62;;;8.21;100.00
60817;BME280;51921;51.518;-3.188;2023-06-10T06:20:14;100963.21;;;8.64;100.00
60817;BME280;51921;51.518;-3.188;2023-06-10T06:22:40;100966.82;;;8.53;100.00
60817;BME280;51921;51.518;-3.188;2023-06-10T06:25:06;100963.52;;;8.70;100.00
60817;BME280;51921;51.518;-3.188;2023-06-10T06:27:31;100972.43;;;8.51;100.00
60817;BME280;51921;51.518;-3.188;2023-06-10T06:29:56;100963.64;;;8.35;100.00
60817;BME280;51921;51.518;-3.188;2023-06-10T06:32:21;100968.96;;;8.87;100.00
60817;BME280;51921;51.518;-3.188;2023-06-10T06:34:46;100963.38;;;9.38;100.00
60817;BME280;51921;51.518;-3.188;2023-06-10T06:37:12;100959.99;;;10.38;100.00
60817;BME280;51921;51.518;-3.188;2023-06-10T06:39:37;100964.86;;;9.20;100.00
60817;BME280;51921;51.518;-3.188;2023-06-10T06:42:04;100967.50;;;9.17;100.00
60817;BME280;51921;51.518;-3.188;2023-06-10T06:44:28;100962.28;;;9.31;100.00
60817;BME280;51921;51.518;-3.188;2023-06-10T06:46:54;100962.44;;;9.15;100.00
60817;BME280;51921;51.518;-3.188;2023-06-10T06:49:19;100962.50;;;9.52;100.00
60817;BME280;51921;51.518;-3.188;2023-06-10T06:51:45;100968.34;;;9.43;100.00
60817;BME280;51921;51.518;-3.188;2023-06-10T06:54:10;100963.21;;;9.30;100.00
60817;BME280;51921;51.518;-3.188;2023-06-10T06:56:35;100971.46;;;9.36;100.00
60817;BME280;51921;51.518;-3.188;2023-06-10T06:59:01;100980.59;;;10.80;100.00
60817;BME280;51921;51.518;-3.188;2023-06-10T07:01:26;100988.34;;;10.35;100.00
60817;BME280;51921;51.518;-3.188;2023-06-10T07:03:52;100989.71;;;10.40;100.00
60817;BME280;51921;51.518;-3.188;2023-06-10T07:06:17;100991.43;;;9.45;100.00
60817;BME280;51921;51.518;-3.188;2023-06-10T07:08:43;100984.64;;;9.97;100.00
60817;BME280;51921;51.518;-3.188;2023-06-10T07:11:08;100984.34;;;10.81;100.00
60817;BME280;51921;51.518;-3.188;2023-06-10T07:13:33;100981.85;;;10.39;100.00
60817;BME280;51921;51.518;-3.188;2023-06-10T07:15:59;100978.74;;;10.29;100.00
60817;BME280;51921;51.518;-3.188;2023-06-10T07:18:24;100973.25;;;10.48;100.00
60817;BME280;51921;51.518;-3.188;2023-06-10T07:20:49;100975.57;;;10.35;100.00
60817;BME280;51921;51.518;-3.188;2023-06-10T07:23:15;100970.47;;;10.43;100.00
60817;BME280;51921;51.518;-3.188;2023-06-10T07:25:41;100974.56;;;10.86;100.00
60817;BME280;51921;51.518;-3.188;2023-06-10T07:28:05;100973.71;;;10.15;100.00
60817;BME280;51921;51.518;-3.188;2023-06-10T07:30:31;100969.48;;;10.16;100.00
60817;BME280;51921;51.518;-3.188;2023-06-10T07:32:56;100977.26;;;10.47;100.00
60817;BME280;51921;51.518;-3.188;2023-06-10T07:35:22;100974.09;;;10.79;100.00
60817;BME280;51921;51.518;-3.188;2023-06-10T07:37:48;100981.43;;;10.84;100.00
60817;BME280;51921;51.518;-3.188;2023-06-10T07:40:13;100985.02;;;10.62;100.00
60817;BME280;51921;51.518;-3.188;2023-06-10T07:42:39;100986.98;;;11.17;100.00
60817;BME280;51921;51.518;-3.188;2023-06-10T07:45:05;100991.08;;;11.74;100.00
60817;BME280;51921;51.518;-3.188;2023-06-10T07:47:30;100989.04;;;10.23;100.00
60817;BME280;51921;51.518;-3.188;2023-06-10T07:49:56;100987.53;;;11.01;100.00
60817;BME280;51921;51.518;-3.188;2023-06-10T07:52:21;100987.66;;;11.69;100.00
60817;BME280;51921;51.518;-3.188;2023-06-10T07:54:47;100986.68;;;12.18;100.00
60817;BME280;51921;51.518;-3.188;2023-06-10T07:57:18;100973.33;;;13.27;100.00
60817;BME280;51921;51.518;-3.188;2023-06-10T07:59:38;100975.89;;;12.60;100.00
60817;BME280;51921;51.518;-3.188;2023-06-10T08:02:04;100977.81;;;12.35;100.00
60817;BME280;51921;51.518;-3.188;2023-06-10T08:04:29;100978.12;;;11.83;100.00
60817;BME280;51921;51.518;-3.188;2023-06-10T08:06:54;100974.82;;;12.85;100.00
60817;BME280;51921;51.518;-3.188;2023-06-10T08:09:19;100972.07;;;13.04;100.00
60817;BME280;51921;51.518;-3.188;2023-06-10T08:11:46;100974.50;;;14.21;100.00
60817;BME280;51921;51.518;-3.188;2023-06-10T08:14:10;100981.09;;;12.67;100.00
60817;BME280;51921;51.518;-3.188;2023-06-10T08:16:35;100974.82;;;14.09;100.00
60817;BME280;51921;51.518;-3.188;2023-06-10T08:19:00;100977.60;;;12.84;100.00
60817;BME280;51921;51.518;-3.188;2023-06-10T08:21:26;100971.34;;;12.59;100.00
60817;BME280;51921;51.518;-3.188;2023-06-10T08:23:52;100972.15;;;13.14;100.00
60817;BME280;51921;51.518;-3.188;2023-06-10T08:26:17;100968.27;;;12.96;100.00
60817;BME280;51921;51.518;-3.188;2023-06-10T08:28:42;100973.15;;;12.53;100.00
60817;BME280;51921;51.518;-3.188;2023-06-10T08:31:08;100971.75;;;12.49;100.00
60817;BME280;51921;51.518;-3.188;2023-06-10T08:33:33;100974.12;;;12.45;100.00
60817;BME280;51921;51.518;-3.188;2023-06-10T08:35:59;100969.44;;;12.38;100.00
60817;BME280;51921;51.518;-3.188;2023-06-10T08:38:24;100980.86;;;11.99;100.00
60817;BME280;51921;51.518;-3.188;2023-06-10T08:40:50;100979.74;;;12.42;100.00
60817;BME280;51921;51.518;-3.188;2023-06-10T08:43:20;100979.93;;;12.11;100.00
60817;BME280;51921;51.518;-3.188;2023-06-10T08:45:42;100974.74;;;12.97;100.00
60817;BME280;51921;51.518;-3.188;2023-06-10T08:48:06;100973.46;;;13.08;100.00
60817;BME280;51921;51.518;-3.188;2023-06-10T08:50:32;100970.95;;;13.41;100.00
60817;BME280;51921;51.518;-3.188;2023-06-10T08:52:58;100966.46;;;13.07;100.00
60817;BME280;51921;51.518;-3.188;2023-06-10T08:55:27;100969.00;;;13.53;100.00
60817;BME280;51921;51.518;-3.188;2023-06-10T08:57:48;100965.15;;;11.96;100.00
60817;BME280;51921;51.518;-3.188;2023-06-10T09:00:13;100967.90;;;12.69;100.00
60817;BME280;51921;51.518;-3.188;2023-06-10T09:02:39;100962.66;;;12.97;100.00
60817;BME280;51921;51.518;-3.188;2023-06-10T09:05:05;100968.20;;;12.60;100.00
60817;BME280;51921;51.518;-3.188;2023-06-10T09:07:30;100961.14;;;13.53;100.00
60817;BME280;51921;51.518;-3.188;2023-06-10T09:09:55;100966.72;;;12.85;100.00
60817;BME280;51921;51.518;-3.188;2023-06-10T09:12:20;100973.91;;;13.44;100.00
60817;BME280;51921;51.518;-3.188;2023-06-10T09:14:45;100972.96;;;13.61;100.00
60817;BME280;51921;51.518;-3.188;2023-06-10T09:17:10;100969.86;;;14.44;100.00
60817;BME280;51921;51.518;-3.188;2023-06-10T09:19:37;100972.82;;;14.09;100.00
60817;BME280;51921;51.518;-3.188;2023-06-10T09:22:02;100979.64;;;13.47;100.00
60817;BME280;51921;51.518;-3.188;2023-06-10T09:24:28;100973.93;;;13.99;100.00
60817;BME280;51921;51.518;-3.188;2023-06-10T09:27:03;100974.82;;;13.21;100.00
60817;BME280;51921;51.518;-3.188;2023-06-10T09:29:18;100983.61;;;13.45;100.00
60817;BME280;51921;51.518;-3.188;2023-06-10T09:31:44;100972.62;;;13.88;100.00
60817;BME280;51921;51.518;-3.188;2023-06-10T09:34:10;100976.44;;;13.33;100.00
60817;BME280;51921;51.518;-3.188;2023-06-10T09:36:34;100975.94;;;13.20;100.00
60817;BME280;51921;51.518;-3.188;2023-06-10T09:38:59;100971.47;;;13.56;100.00
60817;BME280;51921;51.518;-3.188;2023-06-10T09:41:33;100972.26;;;14.24;100.00
60817;BME280;51921;51.518;-3.188;2023-06-10T09:43:50;100976.83;;;14.64;100.00
60817;BME280;51921;51.518;-3.188;2023-06-10T09:46:16;100977.94;;;13.93;100.00
60817;BME280;51921;51.518;-3.188;2023-06-10T09:48:41;100976.12;;;14.38;100.00
60817;BME280;51921;51.518;-3.188;2023-06-10T09:51:09;100980.98;;;13.74;100.00
60817;BME280;51921;51.518;-3.188;2023-06-10T09:53:33;100979.97;;;14.80;100.00
60817;BME280;51921;51.518;-3.188;2023-06-10T09:55:57;100986.41;;;14.24;100.00
60817;BME280;51921;51.518;-3.188;2023-06-10T10:00:52;100973.62;;;14.53;100.00
60817;BME280;51921;51.518;-3.188;2023-06-10T10:03:22;100981.10;;;14.86;100.00
60817;BME280;51921;51.518;-3.188;2023-06-10T10:05:38;100985.37;;;14.71;100.00
60817;BME280;51921;51.518;-3.188;2023-06-10T10:08:04;100981.89;;;15.23;100.00
60817;BME280;51921;51.518;-3.188;2023-06-10T10:10:29;100975.85;;;14.97;100.00
60817;BME280;51921;51.518;-3.188;2023-06-10T10:12:55;100973.16;;;15.98;100.00
60817;BME280;51921;51.518;-3.188;2023-06-10T10:15:21;100966.23;;;15.59;100.00
60817;BME280;51921;51.518;-3.188;2023-06-10T10:17:48;100967.70;;;15.75;100.00
60817;BME280;51921;51.518;-3.188;2023-06-10T10:20:13;100975.44;;;15.22;100.00
60817;BME280;51921;51.518;-3.188;2023-06-10T10:22:38;100977.91;;;15.56;100.00
60817;BME280;51921;51.518;-3.188;2023-06-10T10:25:05;100983.02;;;15.76;100.00
60817;BME280;51921;51.518;-3.188;2023-06-10T10:27:28;100988.63;;;16.93;100.00
60817;BME280;51921;51.518;-3.188;2023-06-10T10:29:53;100983.17;;;18.42;98.10
60817;BME280;51921;51.518;-3.188;2023-06-10T10:32:18;100984.07;;;17.60;100.00
60817;BME280;51921;51.518;-3.188;2023-06-10T10:34:49;100979.60;;;17.16;100.00
60817;BME280;51921;51.518;-3.188;2023-06-10T10:37:08;100981.56;;;20.64;85.35
60817;BME280;51921;51.518;-3.188;2023-06-10T10:39:34;100983.94;;;16.61;100.00
60817;BME280;51921;51.518;-3.188;2023-06-10T10:42:00;100988.50;;;18.24;93.34
60817;BME280;51921;51.518;-3.188;2023-06-10T10:44:25;100981.06;;;16.13;100.00
60817;BME280;51921;51.518;-3.188;2023-06-10T10:46:50;100984.81;;;16.65;100.00
60817;BME280;51921;51.518;-3.188;2023-06-10T10:49:15;100977.14;;;16.63;100.00
60817;BME280;51921;51.518;-3.188;2023-06-10T10:54:11;100964.35;;;16.91;100.00
60817;BME280;51921;51.518;-3.188;2023-06-10T10:56:30;100962.31;;;17.19;100.00
60817;BME280;51921;51.518;-3.188;2023-06-10T10:59:03;100955.30;;;16.42;100.00
60817;BME280;51921;51.518;-3.188;2023-06-10T11:01:21;100956.41;;;18.19;100.00
60817;BME280;51921;51.518;-3.188;2023-06-10T11:03:47;100968.83;;;16.11;100.00
60817;BME280;51921;51.518;-3.188;2023-06-10T11:06:14;100973.26;;;17.43;100.00
60817;BME280;51921;51.518;-3.188;2023-06-10T11:08:46;100973.04;;;19.13;92.92
60817;BME280;51921;51.518;-3.188;2023-06-10T11:13:28;100978.71;;;21.45;73.69
60817;BME280;51921;51.518;-3.188;2023-06-10T11:15:57;100982.51;;;20.58;74.55
60817;BME280;51921;51.518;-3.188;2023-06-10T11:18:23;100983.48;;;20.56;76.30
60817;BME280;51921;51.518;-3.188;2023-06-10T11:23:09;100975.84;;;21.71;66.00
60817;BME280;51921;51.518;-3.188;2023-06-10T11:25:38;100976.51;;;22.29;61.73
60817;BME280;51921;51.518;-3.188;2023-06-10T11:28:00;100981.82;;;19.61;74.01
60817;BME280;51921;51.518;-3.188;2023-06-10T11:30:26;100984.90;;;19.33;75.80
60817;BME280;51921;51.518;-3.188;2023-06-10T11:32:51;100985.16;;;19.44;71.78
60817;BME280;51921;51.518;-3.188;2023-06-10T11:35:16;100984.76;;;19.22;75.59
60817;BME280;51921;51.518;-3.188;2023-06-10T11:37:42;100979.93;;;21.98;66.49
60817;BME280;51921;51.518;-3.188;2023-06-10T11:40:09;100985.72;;;23.96;57.52
60817;BME280;51921;51.518;-3.188;2023-06-10T11:42:32;100981.10;;;24.41;54.00
60817;BME280;51921;51.518;-3.188;2023-06-10T11:44:58;100983.02;;;23.86;54.60
60817;BME280;51921;51.518;-3.188;2023-06-10T11:47:23;100983.68;;;24.48;54.26
60817;BME280;51921;51.518;-3.188;2023-06-10T11:49:55;100981.62;;;24.57;51.97
60817;BME280;51921;51.518;-3.188;2023-06-10T11:52:14;100984.51;;;24.64;51.36
60817;BME280;51921;51.518;-3.188;2023-06-10T11:54:39;100984.76;;;24.83;50.13
60817;BME280;51921;51.518;-3.188;2023-06-10T11:57:05;100987.57;;;20.99;59.15
60817;BME280;51921;51.518;-3.188;2023-06-10T11:59:30;100986.24;;;24.14;55.20
60817;BME280;51921;51.518;-3.188;2023-06-10T12:01:56;100986.99;;;24.66;52.05
60817;BME280;51921;51.518;-3.188;2023-06-10T12:04:21;100985.76;;;24.30;50.95
60817;BME280;51921;51.518;-3.188;2023-06-10T12:06:47;100988.20;;;24.01;52.25
60817;BME280;51921;51.518;-3.188;2023-06-10T12:09:18;100988.08;;;23.85;51.83
60817;BME280;51921;51.518;-3.188;2023-06-10T12:11:37;100985.39;;;24.59;51.13
60817;BME280;51921;51.518;-3.188;2023-06-10T12:14:02;100986.41;;;23.86;51.35
60817;BME280;51921;51.518;-3.188;2023-06-10T12:16:27;100989.20;;;23.08;52.24
60817;BME280;51921;51.518;-3.188;2023-06-10T12:19:02;100986.03;;;24.45;49.37
60817;BME280;51921;51.518;-3.188;2023-06-10T12:21:19;100985.14;;;23.28;51.26
60817;BME280;51921;51.518;-3.188;2023-06-10T12:26:08;100980.51;;;24.67;48.27
60817;BME280;51921;51.518;-3.188;2023-06-10T12:28:34;100979.53;;;25.89;47.92
60817;BME280;51921;51.518;-3.188;2023-06-10T12:31:06;100978.36;;;25.26;46.78
60817;BME280;51921;51.518;-3.188;2023-06-10T12:33:26;100978.39;;;26.18;45.09
60817;BME280;51921;51.518;-3.188;2023-06-10T12:35:52;100980.71;;;25.45;45.02
60817;BME280;51921;51.518;-3.188;2023-06-10T12:38:21;100978.34;;;24.64;48.45